sensor_id;sensor_type;location;lat;lon;timestamp;P1;durP1;ratioP1;P2;durP2;ratioP2
56297;SDS011;42208;6.376;-10.782;2023-05-10T00:00:16;12.40;;;4.45;;
56297;SDS011;42208;6.376;-10.782;2023-05-10T00:02:45;15.35;;;5.05;;
56297;SDS011;42208;6.376;-10.782;2023-05-10T00:05:13;19.67;;;5.35;;
56297;SDS011;42208;6.376;-10.782;2023-05-10T00:07:42;19.15;;;6.38;;
56297;SDS011;42208;6.376;-10.782;2023-05-10T00:10:11;26.83;;;6.93;;
56297;SDS011;42208;6.376;-10.782;2023-05-10T00:12:39;14.00;;;5.43;;
56297;SDS011;42208;6.376;-10.782;2023-05-10T00:15:08;16.88;;;5.10;;
56297;SDS011;42208;6.376;-10.782;2023-05-10T00:17:36;15.82;;;5.18;;
56297;SDS011;42208;6.376;-10.782;2023-05-10T00:20:05;17.73;;;5.00;;
56297;SDS011;42208;6.376;-10.782;2023-05-10T00:22:33;11.00;;;4.57;;
56297;SDS011;42208;6.376;-10.782;2023-05-10T00:25:02;20.25;;;4.65;;
56297;SDS011;42208;6.376;-10.782;2023-05-10T00:27:31;14.98;;;5.00;;
56297;SDS011;42208;6.376;-10.782;2023-05-10T00:30:06;13.93;;;4.80;;
56297;SDS011;42208;6.376;-10.782;2023-05-10T00:32:34;10.70;;;4.43;;
56297;SDS011;42208;6.376;-10.782;2023-05-10T00:35:03;11.30;;;4.63;;
56297;SDS011;42208;6.376;-10.782;2023-05-10T00:37:32;19.98;;;6.13;;
56297;SDS011;42208;6.376;-10.782;2023-05-10T00:40:00;11.50;;;4.45;;
56297;SDS011;42208;6.376;-10.782;2023-05-10T00:42:29;19.88;;;4.28;;
56297;SDS011;42208;6.376;-10.782;2023-05-10T00:44:57;11.93;;;4.18;;
56297;SDS011;42208;6.376;-10.782;2023-05-10T00:47:25;16.88;;;5.20;;
56297;SDS011;42208;6.376;-10.782;2023-05-10T00:49:55;18.98;;;4.65;;
56297;SDS011;42208;6.376;-10.782;2023-05-10T00:52:23;14.93;;;5.10;;
56297;SDS011;42208;6.376;-10.782;2023-05-10T00:54:52;13.50;;;4.18;;
56297;SDS011;42208;6.376;-10.782;2023-05-10T00:57:21;17.98;;;4.72;;
56297;SDS011;42208;6.376;-10.782;2023-05-10T00:59:50;16.92;;;4.88;;
56297;SDS011;42208;6.376;-10.782;2023-05-10T01:02:18;19.08;;;5.72;;
56297;SDS011;42208;6.376;-10.782;2023-05-10T01:04:47;17.38;;;5.43;;
56297;SDS011;42208;6.376;-10.782;2023-05-10T01:07:16;17.77;;;5.47;;
56297;SDS011;42208;6.376;-10.782;2023-05-10T01:09:45;15.73;;;4.47;;
56297;SDS011;42208;6.376;-10.782;2023-05-10T01:12:14;35.70;;;8.55;;
56297;SDS011;42208;6.376;-10.782;2023-05-10T01:14:43;50.33;;;9.15;;
56297;SDS011;42208;6.376;-10.782;2023-05-10T01:17:11;59.72;;;8.90;;
56297;SDS011;42208;6.376;-10.782;2023-05-10T01:19:41;126.63;;;12.63;;
56297;SDS011;42208;6.376;-10.782;2023-05-10T01:24:53;58.88;;;12.30;;
56297;SDS011;42208;6.376;-10.782;2023-05-10T01:28:03;50.72;;;11.52;;
56297;SDS011;42208;6.376;-10.782;2023-05-10T01:33:30;47.22;;;9.10;;
56297;SDS011;42208;6.376;-10.782;2023-05-10T01:36:51;36.08;;;8.35;;
56297;SDS011;42208;6.376;-10.782;2023-05-10T01:45:07;41.97;;;8.90;;
56297;SDS011;42208;6.376;-10.782;2023-05-10T01:50:19;53.47;;;8.57;;
56297;SDS011;42208;6.376;-10.782;2023-05-10T01:52:53;34.90;;;7.82;;
56297;SDS011;42208;6.376;-10.782;2023-05-10T01:55:24;29.13;;;7.23;;
56297;SDS011;42208;6.376;-10.782;2023-05-10T01:57:58;31.73;;;6.85;;
56297;SDS011;42208;6.376;-10.782;2023-05-10T02:00:33;29.48;;;6.88;;
56297;SDS011;42208;6.376;-10.782;2023-05-10T02:03:04;32.85;;;8.65;;
56297;SDS011;42208;6.376;-10.782;2023-05-10T02:05:36;32.72;;;7.47;;
56297;SDS011;42208;6.376;-10.782;2023-05-10T02:08:06;36.03;;;7.55;;
56297;SDS011;42208;6.376;-10.782;2023-05-10T02:10:36;37.25;;;7.07;;
56297;SDS011;42208;6.376;-10.782;2023-05-10T02:13:07;32.45;;;7.70;;
56297;SDS011;42208;6.376;-10.782;2023-05-10T02:15:37;34.03;;;7.00;;
56297;SDS011;42208;6.376;-10.782;2023-05-10T02:18:07;35.95;;;7.05;;
56297;SDS011;42208;6.376;-10.782;2023-05-10T02:20:38;28.17;;;6.47;;
56297;SDS011;42208;6.376;-10.782;2023-05-10T02:23:06;28.52;;;6.80;;
56297;SDS011;42208;6.376;-10.782;2023-05-10T02:25:37;29.33;;;6.40;;
56297;SDS011;42208;6.376;-10.782;2023-05-10T02:28:06;36.67;;;5.90;;
56297;SDS011;42208;6.376;-10.782;2023-05-10T02:30:35;28.98;;;6.88;;
56297;SDS011;42208;6.376;-10.782;2023-05-10T02:33:04;32.40;;;7.30;;
56297;SDS011;42208;6.376;-10.782;2023-05-10T02:35:33;27.23;;;6.57;;
56297;SDS011;42208;6.376;-10.782;2023-05-10T02:38:02;32.63;;;6.78;;
56297;SDS011;42208;6.376;-10.782;2023-05-10T02:40:32;31.48;;;6.20;;
56297;SDS011;42208;6.376;-10.782;2023-05-10T02:43:03;36.13;;;6.32;;
56297;SDS011;42208;6.376;-10.782;2023-05-10T02:45:32;30.17;;;5.90;;
56297;SDS011;42208;6.376;-10.782;2023-05-10T02:48:04;19.80;;;5.90;;
56297;SDS011;42208;6.376;-10.782;2023-05-10T02:50:33;37.15;;;8.20;;
56297;SDS011;42208;6.376;-10.782;2023-05-10T02:53:04;29.75;;;7.65;;
56297;SDS011;42208;6.376;-10.782;2023-05-10T02:55:38;39.95;;;11.30;;
56297;SDS011;42208;6.376;-10.782;2023-05-10T02:58:09;37.47;;;14.27;;
56297;SDS011;42208;6.376;-10.782;2023-05-10T03:00:37;69.63;;;19.33;;
56297;SDS011;42208;6.376;-10.782;2023-05-10T03:03:06;70.93;;;20.80;;
56297;SDS011;42208;6.376;-10.782;2023-05-10T03:05:35;47.70;;;14.80;;
56297;SDS011;42208;6.376;-10.782;2023-05-10T03:08:03;36.85;;;11.73;;
56297;SDS011;42208;6.376;-10.782;2023-05-10T03:10:32;31.05;;;7.25;;
56297;SDS011;42208;6.376;-10.782;2023-05-10T03:13:09;21.38;;;7.88;;
56297;SDS011;42208;6.376;-10.782;2023-05-10T03:16:06;29.05;;;7.88;;
56297;SDS011;42208;6.376;-10.782;2023-05-10T03:21:14;32.75;;;6.43;;
56297;SDS011;42208;6.376;-10.782;2023-05-10T03:23:53;28.90;;;7.47;;
56297;SDS011;42208;6.376;-10.782;2023-05-10T03:26:27;23.17;;;6.30;;
56297;SDS011;42208;6.376;-10.782;2023-05-10T03:29:16;25.00;;;5.93;;
56297;SDS011;42208;6.376;-10.782;2023-05-10T03:31:45;33.05;;;7.80;;
56297;SDS011;42208;6.376;-10.782;2023-05-10T03:34:14;14.40;;;5.20;;
56297;SDS011;42208;6.376;-10.782;2023-05-10T03:36:43;27.95;;;7.47;;
56297;SDS011;42208;6.376;-10.782;2023-05-10T03:39:11;32.22;;;6.72;;
56297;SDS011;42208;6.376;-10.782;2023-05-10T03:41:39;25.42;;;7.32;;
56297;SDS011;42208;6.376;-10.782;2023-05-10T03:44:08;54.22;;;10.18;;
56297;SDS011;42208;6.376;-10.782;2023-05-10T03:46:36;37.03;;;9.63;;
56297;SDS011;42208;6.376;-10.782;2023-05-10T03:49:04;28.05;;;8.82;;
56297;SDS011;42208;6.376;-10.782;2023-05-10T03:51:33;32.00;;;7.72;;
56297;SDS011;42208;6.376;-10.782;2023-05-10T03:54:01;27.15;;;7.22;;
56297;SDS011;42208;6.376;-10.782;2023-05-10T03:56:29;28.40;;;6.47;;
56297;SDS011;42208;6.376;-10.782;2023-05-10T03:58:59;31.40;;;7.05;;
56297;SDS011;42208;6.376;-10.782;2023-05-10T04:01:27;25.63;;;6.88;;
56297;SDS011;42208;6.376;-10.782;2023-05-10T04:03:55;25.45;;;7.85;;
56297;SDS011;42208;6.376;-10.782;2023-05-10T04:06:24;31.23;;;7.72;;
56297;SDS011;42208;6.376;-10.782;2023-05-10T04:08:53;35.00;;;7.82;;
56297;SDS011;42208;6.376;-10.782;2023-05-10T04:11:22;23.75;;;6.50;;
56297;SDS011;42208;6.376;-10.782;2023-05-10T04:13:51;25.58;;;6.55;;
56297;SDS011;42208;6.376;-10.782;2023-05-10T04:16:19;31.30;;;7.07;;
56297;SDS011;42208;6.376;-10.782;2023-05-10T04:18:47;27.25;;;6.40;;
56297;SDS011;42208;6.376;-10.782;2023-05-10T04:21:15;22.05;;;6.97;;
56297;SDS011;42208;6.376;-10.782;2023-05-10T04:23:44;32.78;;;7.53;;
56297;SDS011;42208;6.376;-10.782;2023-05-10T04:26:12;27.30;;;6.95;;
56297;SDS011;42208;6.376;-10.782;2023-05-10T04:28:40;25.17;;;7.07;;
56297;SDS011;42208;6.376;-10.782;2023-05-10T04:31:09;34.95;;;7.97;;
56297;SDS011;42208;6.376;-10.782;2023-05-10T04:33:38;24.63;;;7.10;;
56297;SDS011;42208;6.376;-10.782;2023-05-10T04:36:06;32.38;;;8.90;;
56297;SDS011;42208;6.376;-10.782;2023-05-10T04:38:35;24.73;;;8.38;;
56297;SDS011;42208;6.376;-10.782;2023-05-10T04:41:03;25.45;;;8.00;;
56297;SDS011;42208;6.376;-10.782;2023-05-10T04:43:36;32.88;;;11.27;;
56297;SDS011;42208;6.376;-10.782;2023-05-10T04:46:05;30.80;;;11.55;;
56297;SDS011;42208;6.376;-10.782;2023-05-10T04:48:33;28.40;;;10.48;;
56297;SDS011;42208;6.376;-10.782;2023-05-10T04:51:02;25.08;;;8.32;;
56297;SDS011;42208;6.376;-10.782;2023-05-10T04:53:30;20.48;;;6.75;;
56297;SDS011;42208;6.376;-10.782;2023-05-10T04:55:58;22.92;;;6.90;;
56297;SDS011;42208;6.376;-10.782;2023-05-10T04:58:26;29.77;;;5.55;;
56297;SDS011;42208;6.376;-10.782;2023-05-10T05:00:55;18.38;;;5.43;;
56297;SDS011;42208;6.376;-10.782;2023-05-10T05:03:23;18.25;;;5.18;;
56297;SDS011;42208;6.376;-10.782;2023-05-10T05:05:52;23.67;;;6.03;;
56297;SDS011;42208;6.376;-10.782;2023-05-10T05:08:20;45.22;;;7.38;;
56297;SDS011;42208;6.376;-10.782;2023-05-10T05:10:48;19.25;;;5.70;;
56297;SDS011;42208;6.376;-10.782;2023-05-10T05:13:16;27.85;;;9.45;;
56297;SDS011;42208;6.376;-10.782;2023-05-10T05:15:45;33.28;;;7.28;;
56297;SDS011;42208;6.376;-10.782;2023-05-10T05:18:13;30.95;;;7.82;;
56297;SDS011;42208;6.376;-10.782;2023-05-10T05:20:42;36.17;;;9.57;;
56297;SDS011;42208;6.376;-10.782;2023-05-10T05:23:10;22.35;;;8.57;;
56297;SDS011;42208;6.376;-10.782;2023-05-10T05:25:38;30.83;;;9.15;;
56297;SDS011;42208;6.376;-10.782;2023-05-10T05:28:07;37.63;;;10.10;;
56297;SDS011;42208;6.376;-10.782;2023-05-10T05:30:35;29.58;;;10.35;;
56297;SDS011;42208;6.376;-10.782;2023-05-10T05:33:04;34.13;;;12.68;;
56297;SDS011;42208;6.376;-10.782;2023-05-10T05:35:32;38.13;;;11.35;;
56297;SDS011;42208;6.376;-10.782;2023-05-10T05:38:01;40.97;;;13.57;;
56297;SDS011;42208;6.376;-10.782;2023-05-10T05:40:29;40.67;;;12.82;;
56297;SDS011;42208;6.376;-10.782;2023-05-10T05:42:57;45.20;;;14.70;;
56297;SDS011;42208;6.376;-10.782;2023-05-10T05:45:25;44.40;;;14.32;;
56297;SDS011;42208;6.376;-10.782;2023-05-10T05:47:54;42.70;;;15.13;;
56297;SDS011;42208;6.376;-10.782;2023-05-10T05:50:22;36.28;;;11.73;;
56297;SDS011;42208;6.376;-10.782;2023-05-10T05:52:50;38.13;;;11.73;;
56297;SDS011;42208;6.376;-10.782;2023-05-10T05:55:18;32.40;;;10.75;;
56297;SDS011;42208;6.376;-10.782;2023-05-10T05:57:47;30.17;;;8.93;;
56297;SDS011;42208;6.376;-10.782;2023-05-10T06:00:15;33.22;;;9.25;;
56297;SDS011;42208;6.376;-10.782;2023-05-10T06:02:44;33.88;;;11.02;;
56297;SDS011;42208;6.376;-10.782;2023-05-10T06:05:12;44.30;;;11.82;;
56297;SDS011;42208;6.376;-10.782;2023-05-10T06:07:41;40.63;;;11.02;;
56297;SDS011;42208;6.376;-10.782;2023-05-10T06:10:09;45.13;;;11.95;;
56297;SDS011;42208;6.376;-10.782;2023-05-10T06:12:38;40.00;;;9.07;;
56297;SDS011;42208;6.376;-10.782;2023-05-10T06:15:06;38.38;;;8.75;;
56297;SDS011;42208;6.376;-10.782;2023-05-10T06:17:35;29.48;;;8.63;;
56297;SDS011;42208;6.376;-10.782;2023-05-10T06:20:03;40.30;;;9.73;;
56297;SDS011;42208;6.376;-10.782;2023-05-10T06:22:33;37.63;;;8.00;;
56297;SDS011;42208;6.376;-10.782;2023-05-10T06:25:01;29.75;;;8.25;;
56297;SDS011;42208;6.376;-10.782;2023-05-10T06:27:29;36.45;;;8.82;;
56297;SDS011;42208;6.376;-10.782;2023-05-10T06:29:58;40.67;;;8.85;;
56297;SDS011;42208;6.376;-10.782;2023-05-10T06:32:39;30.02;;;7.93;;
56297;SDS011;42208;6.376;-10.782;2023-05-10T06:35:07;28.27;;;8.95;;
56297;SDS011;42208;6.376;-10.782;2023-05-10T06:37:35;35.88;;;9.52;;
56297;SDS011;42208;6.376;-10.782;2023-05-10T06:40:04;31.42;;;7.78;;
56297;SDS011;42208;6.376;-10.782;2023-05-10T06:42:34;39.28;;;8.45;;
56297;SDS011;42208;6.376;-10.782;2023-05-10T06:45:02;36.78;;;9.23;;
56297;SDS011;42208;6.376;-10.782;2023-05-10T06:47:31;34.28;;;8.98;;
56297;SDS011;42208;6.376;-10.782;2023-05-10T06:50:00;28.67;;;9.05;;
56297;SDS011;42208;6.376;-10.782;2023-05-10T06:52:28;26.90;;;9.35;;
56297;SDS011;42208;6.376;-10.782;2023-05-10T06:54:56;30.27;;;9.88;;
56297;SDS011;42208;6.376;-10.782;2023-05-10T06:57:25;31.52;;;10.10;;
56297;SDS011;42208;6.376;-10.782;2023-05-10T06:59:58;28.88;;;7.97;;
56297;SDS011;42208;6.376;-10.782;2023-05-10T07:02:27;23.23;;;7.10;;
56297;SDS011;42208;6.376;-10.782;2023-05-10T07:04:55;24.98;;;7.95;;
56297;SDS011;42208;6.376;-10.782;2023-05-10T07:07:26;27.63;;;9.60;;
56297;SDS011;42208;6.376;-10.782;2023-05-10T07:09:55;28.02;;;9.68;;
56297;SDS011;42208;6.376;-10.782;2023-05-10T07:12:23;34.90;;;9.02;;
56297;SDS011;42208;6.376;-10.782;2023-05-10T07:14:52;29.08;;;8.35;;
56297;SDS011;42208;6.376;-10.782;2023-05-10T07:17:20;26.23;;;8.07;;
56297;SDS011;42208;6.376;-10.782;2023-05-10T07:19:49;29.23;;;9.60;;
56297;SDS011;42208;6.376;-10.782;2023-05-10T07:22:17;32.35;;;9.90;;
56297;SDS011;42208;6.376;-10.782;2023-05-10T07:24:45;39.20;;;10.52;;
56297;SDS011;42208;6.376;-10.782;2023-05-10T07:27:14;37.85;;;10.98;;
56297;SDS011;42208;6.376;-10.782;2023-05-10T07:29:42;26.27;;;9.10;;
56297;SDS011;42208;6.376;-10.782;2023-05-10T07:32:11;30.00;;;8.15;;
56297;SDS011;42208;6.376;-10.782;2023-05-10T07:34:39;40.97;;;10.10;;
56297;SDS011;42208;6.376;-10.782;2023-05-10T07:37:07;30.33;;;9.70;;
56297;SDS011;42208;6.376;-10.782;2023-05-10T07:39:35;29.70;;;9.45;;
56297;SDS011;42208;6.376;-10.782;2023-05-10T07:42:04;39.05;;;9.88;;
56297;SDS011;42208;6.376;-10.782;2023-05-10T07:44:32;34.53;;;10.23;;
56297;SDS011;42208;6.376;-10.782;2023-05-10T07:47:00;39.58;;;9.93;;
56297;SDS011;42208;6.376;-10.782;2023-05-10T07:49:29;40.55;;;10.45;;
56297;SDS011;42208;6.376;-10.782;2023-05-10T07:51:57;36.35;;;10.35;;
56297;SDS011;42208;6.376;-10.782;2023-05-10T07:54:25;32.70;;;8.25;;
56297;SDS011;42208;6.376;-10.782;2023-05-10T07:56:54;31.95;;;9.20;;
56297;SDS011;42208;6.376;-10.782;2023-05-10T07:59:22;34.33;;;8.45;;
56297;SDS011;42208;6.376;-10.782;2023-05-10T08:01:50;28.50;;;8.00;;
56297;SDS011;42208;6.376;-10.782;2023-05-10T08:04:19;35.00;;;8.88;;
56297;SDS011;42208;6.376;-10.782;2023-05-10T08:06:47;20.92;;;8.18;;
56297;SDS011;42208;6.376;-10.782;2023-05-10T08:09:15;37.13;;;9.52;;
56297;SDS011;42208;6.376;-10.782;2023-05-10T08:11:44;31.55;;;9.48;;
56297;SDS011;42208;6.376;-10.782;2023-05-10T08:14:12;37.67;;;8.85;;
56297;SDS011;42208;6.376;-10.782;2023-05-10T08:16:40;26.45;;;8.57;;
56297;SDS011;42208;6.376;-10.782;2023-05-10T08:19:09;26.10;;;7.68;;
56297;SDS011;42208;6.376;-10.782;2023-05-10T08:21:37;36.67;;;9.15;;
56297;SDS011;42208;6.376;-10.782;2023-05-10T08:24:06;31.65;;;9.00;;
56297;SDS011;42208;6.376;-10.782;2023-05-10T08:26:34;34.03;;;8.55;;
56297;SDS011;42208;6.376;-10.782;2023-05-10T08:29:02;28.85;;;9.13;;
56297;SDS011;42208;6.376;-10.782;2023-05-10T08:31:31;22.60;;;8.38;;
56297;SDS011;42208;6.376;-10.782;2023-05-10T08:33:59;32.45;;;8.57;;
56297;SDS011;42208;6.376;-10.782;2023-05-10T08:36:30;23.27;;;7.15;;
56297;SDS011;42208;6.376;-10.782;2023-05-10T08:38:58;20.60;;;9.27;;
56297;SDS011;42208;6.376;-10.782;2023-05-10T08:41:26;29.80;;;7.57;;
56297;SDS011;42208;6.376;-10.782;2023-05-10T08:43:55;29.83;;;8.25;;
56297;SDS011;42208;6.376;-10.782;2023-05-10T08:46:24;25.00;;;7.80;;
56297;SDS011;42208;6.376;-10.782;2023-05-10T08:48:54;22.15;;;8.05;;
56297;SDS011;42208;6.376;-10.782;2023-05-10T08:51:23;26.23;;;8.68;;
56297;SDS011;42208;6.376;-10.782;2023-05-10T08:53:52;23.13;;;7.45;;
56297;SDS011;42208;6.376;-10.782;2023-05-10T08:56:21;18.83;;;6.35;;
56297;SDS011;42208;6.376;-10.782;2023-05-10T08:58:50;34.65;;;12.85;;
56297;SDS011;42208;6.376;-10.782;2023-05-10T09:01:18;39.38;;;13.38;;
56297;SDS011;42208;6.376;-10.782;2023-05-10T09:03:49;27.08;;;7.50;;
56297;SDS011;42208;6.376;-10.782;2023-05-10T09:06:18;27.67;;;7.38;;
56297;SDS011;42208;6.376;-10.782;2023-05-10T09:08:46;32.47;;;7.43;;
56297;SDS011;42208;6.376;-10.782;2023-05-10T09:11:15;28.70;;;7.10;;
56297;SDS011;42208;6.376;-10.782;2023-05-10T09:13:44;27.92;;;7.63;;
56297;SDS011;42208;6.376;-10.782;2023-05-10T09:16:13;26.40;;;7.30;;
56297;SDS011;42208;6.376;-10.782;2023-05-10T09:18:48;27.70;;;8.70;;
56297;SDS011;42208;6.376;-10.782;2023-05-10T09:21:17;58.58;;;11.88;;
56297;SDS011;42208;6.376;-10.782;2023-05-10T09:23:47;34.25;;;9.15;;
56297;SDS011;42208;6.376;-10.782;2023-05-10T09:26:16;32.47;;;9.70;;
56297;SDS011;42208;6.376;-10.782;2023-05-10T09:28:57;25.52;;;8.27;;
56297;SDS011;42208;6.376;-10.782;2023-05-10T09:34:16;25.08;;;8.52;;
56297;SDS011;42208;6.376;-10.782;2023-05-10T09:37:19;22.27;;;7.75;;
56297;SDS011;42208;6.376;-10.782;2023-05-10T09:39:40;22.45;;;8.38;;
56297;SDS011;42208;6.376;-10.782;2023-05-10T09:42:09;24.42;;;7.90;;
56297;SDS011;42208;6.376;-10.782;2023-05-10T09:44:37;23.15;;;7.88;;
56297;SDS011;42208;6.376;-10.782;2023-05-10T09:47:05;27.80;;;7.00;;
56297;SDS011;42208;6.376;-10.782;2023-05-10T09:49:34;27.88;;;8.25;;
56297;SDS011;42208;6.376;-10.782;2023-05-10T09:52:02;31.77;;;8.45;;
56297;SDS011;42208;6.376;-10.782;2023-05-10T09:54:33;28.60;;;6.72;;
56297;SDS011;42208;6.376;-10.782;2023-05-10T09:57:01;31.45;;;8.50;;
56297;SDS011;42208;6.376;-10.782;2023-05-10T09:59:30;27.50;;;8.68;;
56297;SDS011;42208;6.376;-10.782;2023-05-10T10:02:00;29.75;;;10.40;;
56297;SDS011;42208;6.376;-10.782;2023-05-10T10:04:30;19.52;;;7.68;;
56297;SDS011;42208;6.376;-10.782;2023-05-10T10:06:59;30.63;;;7.03;;
56297;SDS011;42208;6.376;-10.782;2023-05-10T10:09:32;27.60;;;8.25;;
56297;SDS011;42208;6.376;-10.782;2023-05-10T10:12:01;23.70;;;8.35;;
56297;SDS011;42208;6.376;-10.782;2023-05-10T10:14:30;34.47;;;8.02;;
56297;SDS011;42208;6.376;-10.782;2023-05-10T10:21:24;24.70;;;8.73;;
56297;SDS011;42208;6.376;-10.782;2023-05-10T10:23:53;28.33;;;9.77;;
56297;SDS011;42208;6.376;-10.782;2023-05-10T10:26:22;29.25;;;9.30;;
56297;SDS011;42208;6.376;-10.782;2023-05-10T10:29:00;39.15;;;11.98;;
56297;SDS011;42208;6.376;-10.782;2023-05-10T10:31:39;30.27;;;9.98;;
56297;SDS011;42208;6.376;-10.782;2023-05-10T10:36:54;38.60;;;12.48;;
56297;SDS011;42208;6.376;-10.782;2023-05-10T10:39:24;36.63;;;13.30;;
56297;SDS011;42208;6.376;-10.782;2023-05-10T10:41:55;31.02;;;8.38;;
56297;SDS011;42208;6.376;-10.782;2023-05-10T10:49:37;39.80;;;8.27;;
56297;SDS011;42208;6.376;-10.782;2023-05-10T10:57:55;26.30;;;8.25;;
56297;SDS011;42208;6.376;-10.782;2023-05-10T11:00:27;26.58;;;7.90;;
56297;SDS011;42208;6.376;-10.782;2023-05-10T11:02:57;29.85;;;6.88;;
56297;SDS011;42208;6.376;-10.782;2023-05-10T11:10:37;37.17;;;8.35;;
56297;SDS011;42208;6.376;-10.782;2023-05-10T11:13:06;29.20;;;8.45;;
56297;SDS011;42208;6.376;-10.782;2023-05-10T11:15:36;22.60;;;8.48;;
56297;SDS011;42208;6.376;-10.782;2023-05-10T11:18:19;55.03;;;21.13;;
56297;SDS011;42208;6.376;-10.782;2023-05-10T11:20:55;68.32;;;30.75;;
56297;SDS011;42208;6.376;-10.782;2023-05-10T11:23:32;68.00;;;26.92;;
56297;SDS011;42208;6.376;-10.782;2023-05-10T11:26:07;56.75;;;23.63;;
56297;SDS011;42208;6.376;-10.782;2023-05-10T11:28:45;25.88;;;11.27;;
56297;SDS011;42208;6.376;-10.782;2023-05-10T11:31:19;21.33;;;6.93;;
56297;SDS011;42208;6.376;-10.782;2023-05-10T11:33:48;40.83;;;14.73;;
56297;SDS011;42208;6.376;-10.782;2023-05-10T11:36:19;59.78;;;23.55;;
56297;SDS011;42208;6.376;-10.782;2023-05-10T11:38:52;47.88;;;15.60;;
56297;SDS011;42208;6.376;-10.782;2023-05-10T11:41:22;37.28;;;16.55;;
56297;SDS011;42208;6.376;-10.782;2023-05-10T11:43:54;30.48;;;12.27;;
56297;SDS011;42208;6.376;-10.782;2023-05-10T11:46:24;36.97;;;8.07;;
56297;SDS011;42208;6.376;-10.782;2023-05-10T11:48:55;42.70;;;11.82;;
56297;SDS011;42208;6.376;-10.782;2023-05-10T11:51:27;25.60;;;8.85;;
56297;SDS011;42208;6.376;-10.782;2023-05-10T11:53:56;47.83;;;11.82;;
56297;SDS011;42208;6.376;-10.782;2023-05-10T11:56:24;31.98;;;9.48;;
56297;SDS011;42208;6.376;-10.782;2023-05-10T11:58:54;27.23;;;8.20;;
56297;SDS011;42208;6.376;-10.782;2023-05-10T12:01:25;19.83;;;7.75;;
56297;SDS011;42208;6.376;-10.782;2023-05-10T12:03:55;30.85;;;10.70;;
56297;SDS011;42208;6.376;-10.782;2023-05-10T12:06:29;25.27;;;8.10;;
56297;SDS011;42208;6.376;-10.782;2023-05-10T12:08:59;24.20;;;7.15;;
56297;SDS011;42208;6.376;-10.782;2023-05-10T12:11:35;26.55;;;6.68;;
56297;SDS011;42208;6.376;-10.782;2023-05-10T12:14:09;21.27;;;7.38;;
56297;SDS011;42208;6.376;-10.782;2023-05-10T12:16:37;18.73;;;6.13;;
56297;SDS011;42208;6.376;-10.782;2023-05-10T12:19:06;19.85;;;6.75;;
56297;SDS011;42208;6.376;-10.782;2023-05-10T12:21:34;22.35;;;6.70;;
56297;SDS011;42208;6.376;-10.782;2023-05-10T12:24:03;22.73;;;6.40;;
56297;SDS011;42208;6.376;-10.782;2023-05-10T12:26:31;20.83;;;5.97;;
56297;SDS011;42208;6.376;-10.782;2023-05-10T12:29:12;21.42;;;6.35;;
56297;SDS011;42208;6.376;-10.782;2023-05-10T12:34:40;19.55;;;5.68;;
56297;SDS011;42208;6.376;-10.782;2023-05-10T12:37:09;25.58;;;7.03;;
56297;SDS011;42208;6.376;-10.782;2023-05-10T12:39:41;16.85;;;5.60;;
56297;SDS011;42208;6.376;-10.782;2023-05-10T12:42:11;25.55;;;6.60;;
56297;SDS011;42208;6.376;-10.782;2023-05-10T12:44:39;14.82;;;4.95;;
56297;SDS011;42208;6.376;-10.782;2023-05-10T12:47:08;16.77;;;5.38;;
56297;SDS011;42208;6.376;-10.782;2023-05-10T12:49:38;17.48;;;4.53;;
56297;SDS011;42208;6.376;-10.782;2023-05-10T12:52:06;18.10;;;5.20;;
56297;SDS011;42208;6.376;-10.782;2023-05-10T12:54:34;14.02;;;4.00;;
56297;SDS011;42208;6.376;-10.782;2023-05-10T12:57:06;17.48;;;4.97;;
56297;SDS011;42208;6.376;-10.782;2023-05-10T12:59:34;11.68;;;4.25;;
56297;SDS011;42208;6.376;-10.782;2023-05-10T13:02:04;15.75;;;4.60;;
56297;SDS011;42208;6.376;-10.782;2023-05-10T13:04:35;16.58;;;4.47;;
56297;SDS011;42208;6.376;-10.782;2023-05-10T13:07:03;13.27;;;4.68;;
56297;SDS011;42208;6.376;-10.782;2023-05-10T13:09:32;17.02;;;5.13;;
56297;SDS011;42208;6.376;-10.782;2023-05-10T13:12:00;30.02;;;8.07;;
56297;SDS011;42208;6.376;-10.782;2023-05-10T13:14:29;17.63;;;5.60;;
56297;SDS011;42208;6.376;-10.782;2023-05-10T13:16:58;23.38;;;6.03;;
56297;SDS011;42208;6.376;-10.782;2023-05-10T13:19:26;19.42;;;4.60;;
56297;SDS011;42208;6.376;-10.782;2023-05-10T13:21:55;22.20;;;4.32;;
56297;SDS011;42208;6.376;-10.782;2023-05-10T13:24:23;25.23;;;4.82;;
56297;SDS011;42208;6.376;-10.782;2023-05-10T13:26:51;15.80;;;4.20;;
56297;SDS011;42208;6.376;-10.782;2023-05-10T13:29:20;23.70;;;5.93;;
56297;SDS011;42208;6.376;-10.782;2023-05-10T13:31:48;22.15;;;4.82;;
56297;SDS011;42208;6.376;-10.782;2023-05-10T13:34:17;21.17;;;4.10;;
56297;SDS011;42208;6.376;-10.782;2023-05-10T13:36:45;16.98;;;4.30;;
56297;SDS011;42208;6.376;-10.782;2023-05-10T13:39:14;28.60;;;4.97;;
56297;SDS011;42208;6.376;-10.782;2023-05-10T13:41:42;23.05;;;5.13;;
56297;SDS011;42208;6.376;-10.782;2023-05-10T13:44:11;21.23;;;5.05;;
56297;SDS011;42208;6.376;-10.782;2023-05-10T13:46:40;31.85;;;6.13;;
56297;SDS011;42208;6.376;-10.782;2023-05-10T13:49:09;21.42;;;6.53;;
56297;SDS011;42208;6.376;-10.782;2023-05-10T13:51:40;19.15;;;5.18;;
56297;SDS011;42208;6.376;-10.782;2023-05-10T13:54:08;22.42;;;5.30;;
56297;SDS011;42208;6.376;-10.782;2023-05-10T13:56:39;18.88;;;6.07;;
56297;SDS011;42208;6.376;-10.782;2023-05-10T13:59:09;16.75;;;6.95;;
56297;SDS011;42208;6.376;-10.782;2023-05-10T14:01:37;18.27;;;6.90;;
56297;SDS011;42208;6.376;-10.782;2023-05-10T14:04:06;27.15;;;6.68;;
56297;SDS011;42208;6.376;-10.782;2023-05-10T14:06:34;12.73;;;5.63;;
56297;SDS011;42208;6.376;-10.782;2023-05-10T14:09:03;17.98;;;6.65;;
56297;SDS011;42208;6.376;-10.782;2023-05-10T14:11:31;17.60;;;5.40;;
56297;SDS011;42208;6.376;-10.782;2023-05-10T14:13:59;18.70;;;6.07;;
56297;SDS011;42208;6.376;-10.782;2023-05-10T14:16:27;20.05;;;6.53;;
56297;SDS011;42208;6.376;-10.782;2023-05-10T14:18:56;22.52;;;8.13;;
56297;SDS011;42208;6.376;-10.782;2023-05-10T14:21:24;23.30;;;6.72;;
56297;SDS011;42208;6.376;-10.782;2023-05-10T14:23:54;25.45;;;6.85;;
56297;SDS011;42208;6.376;-10.782;2023-05-10T14:26:22;21.48;;;7.40;;
56297;SDS011;42208;6.376;-10.782;2023-05-10T14:28:50;31.77;;;7.00;;
56297;SDS011;42208;6.376;-10.782;2023-05-10T14:31:18;26.00;;;7.25;;
56297;SDS011;42208;6.376;-10.782;2023-05-10T15:59:26;26.25;;;7.30;;
56297;SDS011;42208;6.376;-10.782;2023-05-10T16:01:54;21.65;;;7.32;;
56297;SDS011;42208;6.376;-10.782;2023-05-10T16:04:23;19.70;;;6.55;;
56297;SDS011;42208;6.376;-10.782;2023-05-10T16:06:54;21.77;;;6.72;;
56297;SDS011;42208;6.376;-10.782;2023-05-10T16:09:22;17.73;;;7.10;;
56297;SDS011;42208;6.376;-10.782;2023-05-10T16:11:51;26.98;;;6.63;;
56297;SDS011;42208;6.376;-10.782;2023-05-10T16:14:19;17.13;;;6.10;;
56297;SDS011;42208;6.376;-10.782;2023-05-10T16:16:47;29.10;;;6.75;;
56297;SDS011;42208;6.376;-10.782;2023-05-10T16:19:15;22.98;;;6.05;;
56297;SDS011;42208;6.376;-10.782;2023-05-10T16:21:44;22.35;;;6.93;;
56297;SDS011;42208;6.376;-10.782;2023-05-10T16:24:13;23.90;;;8.38;;
56297;SDS011;42208;6.376;-10.782;2023-05-10T16:26:41;23.33;;;7.50;;
56297;SDS011;42208;6.376;-10.782;2023-05-10T16:29:09;24.42;;;9.60;;
56297;SDS011;42208;6.376;-10.782;2023-05-10T16:31:38;22.02;;;9.52;;
56297;SDS011;42208;6.376;-10.782;2023-05-10T16:34:06;27.42;;;8.13;;
56297;SDS011;42208;6.376;-10.782;2023-05-10T16:36:34;23.42;;;8.90;;
56297;SDS011;42208;6.376;-10.782;2023-05-10T16:39:02;25.40;;;9.07;;
56297;SDS011;42208;6.376;-10.782;2023-05-10T16:41:33;22.98;;;9.02;;
56297;SDS011;42208;6.376;-10.782;2023-05-10T16:44:01;22.33;;;8.57;;